Time;durP1;ratioP1;P1;durP2;ratioP2;P2;SDS_P1;SDS_P2;PMS_P1;PMS_P2;Temp;Humidity;BMP_temperature;BMP_pressure;BME280_temperature;BME280_humidity;BME280_pressure;Samples;Min_cycle;Max_cycle;Signal;HPM_P1;HPM_P2
2023/09/06 00:01:37;;;;;;;3.90;3.50;;;;;;;;;;6185467;23;20976;-68
2023/09/06 00:04:04;;;;;;;3.40;3.20;;;;;;;;;;6185832;23;20402;-68
2023/09/06 00:06:31;;;;;;;3.87;3.57;;;;;;;;;;6185894;23;20402;-68
2023/09/06 00:08:58;;;;;;;3.83;3.30;;;;;;;;;;6185759;23;20401;-68
2023/09/06 00:11:27;;;;;;;3.53;3.23;;;;;;;;;;6195062;23;20426;-67
2023/09/06 00:13:54;;;;;;;3.63;3.40;;;;;;;;;;6185748;23;20472;-67
2023/09/06 00:16:22;;;;;;;4.30;3.90;;;;;;;;;;6185910;23;20405;-67
2023/09/06 00:18:50;;;;;;;3.70;3.50;;;;;;;;;;6185755;23;20803;-67
2023/09/06 00:21:17;;;;;;;2.97;2.80;;;;;;;;;;6185770;23;20406;-68
2023/09/06 00:23:44;;;;;;;3.57;3.37;;;;;;;;;;6185833;23;20457;-67
2023/09/06 00:26:11;;;;;;;4.37;4.07;;;;;;;;;;6185542;23;20406;-67
2023/09/06 00:28:38;;;;;;;5.17;4.80;;;;;;;;;;6185782;23;20485;-67
2023/09/06 00:31:06;;;;;;;3.73;3.43;;;;;;;;;;6185790;23;20406;-67
2023/09/06 00:33:35;;;;;;;3.60;3.07;;;;;;;;;;6185688;23;20505;-67
2023/09/06 00:36:03;;;;;;;4.60;4.20;;;;;;;;;;6185555;23;20438;-68
2023/09/06 00:38:30;;;;;;;3.93;3.63;;;;;;;;;;6185575;23;20416;-68
2023/09/06 00:40:57;;;;;;;3.40;3.20;;;;;;;;;;6185834;23;20760;-67
2023/09/06 00:43:24;;;;;;;3.83;3.57;;;;;;;;;;6185773;23;20496;-67
2023/09/06 00:45:53;;;;;;;4.03;3.73;;;;;;;;;;6185774;23;20489;-67
2023/09/06 00:48:22;;;;;;;3.93;3.70;;;;;;;;;;6185546;23;20406;-67
2023/09/06 00:50:52;;;;;;;4.13;3.20;;;;;;;;;;6185469;23;20456;-68
2023/09/06 00:53:19;;;;;;;4.00;3.70;;;;;;;;;;6203732;23;20528;-68
2023/09/06 00:55:48;;;;;;;4.83;3.70;;;;;;;;;;6215713;23;20495;-67
2023/09/06 00:58:16;;;;;;;3.80;3.50;;;;;;;;;;6215567;23;20405;-67
2023/09/06 01:00:43;;;;;;;3.20;3.00;;;;;;;;;;6215674;23;20413;-68
2023/09/06 01:03:10;;;;;;;3.60;3.30;;;;;;;;;;6215663;23;20440;-67
2023/09/06 01:05:40;;;;;;;3.60;3.33;;;;;;;;;;6215694;23;20491;-67
2023/09/06 01:08:11;;;;;;;3.60;3.40;;;;;;;;;;6217083;23;20397;-67
2023/09/06 01:10:38;;;;;;;3.50;3.20;;;;;;;;;;6227411;23;20421;-67
2023/09/06 01:13:06;;;;;;;3.67;3.40;;;;;;;;;;6217426;23;20532;-67
2023/09/06 01:15:33;;;;;;;3.80;3.50;;;;;;;;;;6217361;23;20409;-67
2023/09/06 01:18:00;;;;;;;3.73;3.50;;;;;;;;;;6217398;23;20413;-68
2023/09/06 01:20:31;;;;;;;3.80;3.40;;;;;;;;;;6217420;23;20437;-68
2023/09/06 01:23:04;;;;;;;4.33;3.90;;;;;;;;;;6227323;23;20397;-68
2023/09/06 01:25:32;;;;;;;3.87;3.57;;;;;;;;;;6227213;23;20399;-68
2023/09/06 01:27:59;;;;;;;3.70;3.50;;;;;;;;;;6217192;23;20488;-68
2023/09/06 01:30:29;;;;;;;3.67;3.37;;;;;;;;;;6217386;23;20487;-68
2023/09/06 01:32:56;;;;;;;4.10;3.80;;;;;;;;;;6217050;23;20535;-68
2023/09/06 01:35:23;;;;;;;5.10;3.63;;;;;;;;;;6217189;23;20416;-68
2023/09/06 01:37:50;;;;;;;4.27;3.97;;;;;;;;;;6217282;23;20973;-67
2023/09/06 01:40:18;;;;;;;3.97;3.57;;;;;;;;;;6217155;23;20444;-68
2023/09/06 01:42:46;;;;;;;4.80;4.40;;;;;;;;;;6217236;23;20405;-68
2023/09/06 01:45:17;;;;;;;4.27;3.97;;;;;;;;;;6217059;23;20524;-68
2023/09/06 01:47:43;;;;;;;4.33;4.03;;;;;;;;;;6227114;23;20385;-68
2023/09/06 01:50:11;;;;;;;3.90;3.70;;;;;;;;;;6217196;23;20439;-68
2023/09/06 01:52:40;;;;;;;4.13;3.80;;;;;;;;;;6216674;23;20437;-68
2023/09/06 01:55:07;;;;;;;3.70;3.40;;;;;;;;;;6226421;23;20436;-68
2023/09/06 01:57:34;;;;;;;4.07;3.77;;;;;;;;;;6217034;23;20480;-68
2023/09/06 02:00:18;;;;;;;3.70;3.40;;;;;;;;;;6217075;23;20512;-68
2023/09/06 02:02:45;;;;;;;3.67;3.37;;;;;;;;;;6226910;23;20401;-67
2023/09/06 02:05:12;;;;;;;4.13;3.57;;;;;;;;;;6216591;23;20905;-68
2023/09/06 02:07:39;;;;;;;3.77;3.50;;;;;;;;;;6216923;23;20443;-68
2023/09/06 02:10:08;;;;;;;3.80;3.50;;;;;;;;;;6216973;23;20451;-68
2023/09/06 02:12:35;;;;;;;3.90;3.60;;;;;;;;;;6216774;23;20440;-67
2023/09/06 02:15:04;;;;;;;4.80;3.50;;;;;;;;;;6216485;23;20948;-68
2023/09/06 02:17:31;;;;;;;4.07;3.77;;;;;;;;;;6216503;23;20705;-68
2023/09/06 02:20:01;;;;;;;5.50;4.30;;;;;;;;;;6216566;23;20838;-68
2023/09/06 02:22:28;;;;;;;4.43;3.87;;;;;;;;;;6216721;23;20409;-68
2023/09/06 02:24:55;;;;;;;4.30;4.00;;;;;;;;;;6216787;23;20484;-67
2023/09/06 02:27:21;;;;;;;3.97;3.77;;;;;;;;;;6216422;23;20951;-67
2023/09/06 02:29:51;;;;;;;4.07;3.77;;;;;;;;;;6216523;23;20440;-68
2023/09/06 02:32:19;;;;;;;4.37;3.97;;;;;;;;;;6216242;23;20664;-67
2023/09/06 02:34:47;;;;;;;3.57;3.30;;;;;;;;;;6216780;23;20488;-69
2023/09/06 02:37:14;;;;;;;4.07;3.77;;;;;;;;;;6216687;23;20405;-68
2023/09/06 02:39:41;;;;;;;3.47;3.27;;;;;;;;;;6216702;23;20492;-68
2023/09/06 02:42:08;;;;;;;3.87;3.50;;;;;;;;;;6216683;23;20439;-67
2023/09/06 02:44:34;;;;;;;4.00;3.70;;;;;;;;;;6216635;23;20488;-67
2023/09/06 02:47:03;;;;;;;4.60;4.20;;;;;;;;;;6216563;23;20757;-67
2023/09/06 02:49:32;;;;;;;3.77;3.57;;;;;;;;;;6216488;23;20427;-67
2023/09/06 02:51:59;;;;;;;4.53;4.10;;;;;;;;;;6216233;23;20412;-68
2023/09/06 02:54:26;;;;;;;7.77;3.80;;;;;;;;;;6226292;23;20457;-67
2023/09/06 02:56:57;;;;;;;6.20;4.03;;;;;;;;;;6216501;23;20405;-67
2023/09/06 02:59:24;;;;;;;4.40;4.10;;;;;;;;;;6226374;23;20393;-67
2023/09/06 03:01:53;;;;;;;6.10;4.07;;;;;;;;;;6216364;23;20766;-67
2023/09/06 03:04:19;;;;;;;4.00;3.70;;;;;;;;;;6216289;23;20409;-68
2023/09/06 03:06:48;;;;;;;4.00;3.77;;;;;;;;;;6216463;23;20493;-67
2023/09/06 03:09:15;;;;;;;4.03;3.63;;;;;;;;;;6216327;23;20405;-67
2023/09/06 03:11:42;;;;;;;4.47;4.17;;;;;;;;;;6216341;23;20764;-67
2023/09/06 03:14:08;;;;;;;4.07;3.77;;;;;;;;;;6216220;23;20527;-67
2023/09/06 03:16:39;;;;;;;3.83;3.53;;;;;;;;;;6216242;23;20489;-67
2023/09/06 03:19:09;;;;;;;4.00;3.80;;;;;;;;;;6226193;23;20400;-67
2023/09/06 03:21:36;;;;;;;3.97;3.73;;;;;;;;;;6225756;23;20892;-67
2023/09/06 03:24:11;;;;;;;4.60;4.20;;;;;;;;;;6216157;23;20488;-67
2023/09/06 03:26:39;;;;;;;3.77;3.47;;;;;;;;;;6225751;23;20934;-67
2023/09/06 03:29:10;;;;;;;4.20;3.90;;;;;;;;;;6215951;23;20410;-67
2023/09/06 03:31:42;;;;;;;4.47;4.07;;;;;;;;;;6226115;23;20448;-68
2023/09/06 03:34:13;;;;;;;8.87;4.60;;;;;;;;;;6225902;23;20520;-67
2023/09/06 03:36:40;;;;;;;8.60;4.07;;;;;;;;;;6226044;23;20402;-67
2023/09/06 03:39:13;;;;;;;4.53;4.13;;;;;;;;;;6216039;23;20409;-68
2023/09/06 03:41:39;;;;;;;4.57;4.17;;;;;;;;;;6225961;23;20711;-68
2023/09/06 03:44:07;;;;;;;3.83;3.63;;;;;;;;;;6215697;23;20405;-67
2023/09/06 03:46:34;;;;;;;4.37;3.97;;;;;;;;;;6215930;23;20769;-67
2023/09/06 03:49:05;;;;;;;3.77;3.50;;;;;;;;;;6215946;23;20405;-67
2023/09/06 03:51:32;;;;;;;3.90;3.70;;;;;;;;;;6225771;23;20683;-67
2023/09/06 03:54:00;;;;;;;5.23;3.90;;;;;;;;;;6215407;23;20460;-68
2023/09/06 03:56:28;;;;;;;4.23;4.00;;;;;;;;;;6215808;23;20405;-67
2023/09/06 03:58:56;;;;;;;3.90;3.60;;;;;;;;;;6215913;23;20405;-67
2023/09/06 04:01:25;;;;;;;6.70;4.10;;;;;;;;;;6215853;23;20409;-67
2023/09/06 04:03:53;;;;;;;5.00;4.50;;;;;;;;;;6215729;23;20440;-67
2023/09/06 04:06:20;;;;;;;4.53;4.13;;;;;;;;;;6215886;23;20401;-67
2023/09/06 04:08:48;;;;;;;5.70;4.30;;;;;;;;;;6216017;23;20889;-68
2023/09/06 04:11:16;;;;;;;4.10;3.80;;;;;;;;;;6215859;23;20400;-68
2023/09/06 04:13:44;;;;;;;3.87;3.63;;;;;;;;;;6215229;23;20999;-67
2023/09/06 04:16:11;;;;;;;4.40;4.10;;;;;;;;;;6215243;23;20420;-67
2023/09/06 04:18:38;;;;;;;5.03;4.57;;;;;;;;;;6215880;23;20949;-67
2023/09/06 04:21:08;;;;;;;6.13;4.40;;;;;;;;;;6215839;23;20441;-68
2023/09/06 04:23:36;;;;;;;4.70;4.30;;;;;;;;;;6215658;23;20405;-67
2023/09/06 04:26:04;;;;;;;5.10;4.70;;;;;;;;;;6215800;23;20497;-67
2023/09/06 04:28:31;;;;;;;4.93;4.40;;;;;;;;;;6215730;23;20409;-67
2023/09/06 04:31:00;;;;;;;6.53;5.27;;;;;;;;;;6215781;23;20907;-67
2023/09/06 04:33:27;;;;;;;6.03;4.90;;;;;;;;;;6215565;23;20437;-67
2023/09/06 04:35:54;;;;;;;7.63;5.30;;;;;;;;;;6215824;23;20463;-67
2023/09/06 04:38:23;;;;;;;4.40;4.10;;;;;;;;;;6215744;23;20424;-67
2023/09/06 04:40:51;;;;;;;4.30;4.00;;;;;;;;;;6215716;23;20764;-67
2023/09/06 04:43:19;;;;;;;4.10;3.80;;;;;;;;;;6217436;23;20440;-67
2023/09/06 04:45:46;;;;;;;4.63;4.23;;;;;;;;;;6217627;23;20408;-67
2023/09/06 04:48:16;;;;;;;6.87;4.50;;;;;;;;;;6217610;23;20409;-67
2023/09/06 04:50:44;;;;;;;4.63;4.00;;;;;;;;;;6217364;23;20405;-67
2023/09/06 04:53:15;;;;;;;4.20;3.83;;;;;;;;;;6216953;23;20467;-67
2023/09/06 04:55:42;;;;;;;8.67;4.40;;;;;;;;;;6227508;23;20476;-67
2023/09/06 04:58:10;;;;;;;4.23;3.93;;;;;;;;;;6217686;23;20459;-67
2023/09/06 05:00:39;;;;;;;4.77;4.30;;;;;;;;;;6217336;23;20435;-68
2023/09/06 05:03:08;;;;;;;5.37;4.27;;;;;;;;;;6217412;23;20405;-67
2023/09/06 05:05:36;;;;;;;4.80;4.40;;;;;;;;;;6217334;23;20400;-67
2023/09/06 05:08:03;;;;;;;6.43;3.90;;;;;;;;;;6217323;23;20725;-68
2023/09/06 05:10:30;;;;;;;4.43;4.03;;;;;;;;;;6217423;23;20488;-67
2023/09/06 05:12:57;;;;;;;5.57;5.17;;;;;;;;;;6217622;23;20405;-67
2023/09/06 05:15:24;;;;;;;4.80;4.50;;;;;;;;;;6217418;23;20491;-68
2023/09/06 05:17:51;;;;;;;5.43;4.93;;;;;;;;;;6217248;23;20512;-67
2023/09/06 05:20:26;;;;;;;5.37;4.97;;;;;;;;;;6217377;23;20436;-67
2023/09/06 05:22:54;;;;;;;5.67;5.17;;;;;;;;;;6217076;23;20412;-67
2023/09/06 05:25:21;;;;;;;5.50;5.00;;;;;;;;;;6217202;23;20436;-67
2023/09/06 05:27:48;;;;;;;6.80;6.20;;;;;;;;;;6217220;23;20491;-67
2023/09/06 05:30:15;;;;;;;6.40;4.37;;;;;;;;;;6217221;23;20459;-68
2023/09/06 05:32:42;;;;;;;5.13;4.73;;;;;;;;;;6217134;23;20405;-67
2023/09/06 05:35:10;;;;;;;5.80;5.30;;;;;;;;;;6217108;23;20523;-67
2023/09/06 05:37:37;;;;;;;7.50;5.97;;;;;;;;;;6217181;23;20734;-68
2023/09/06 05:40:06;;;;;;;5.27;4.80;;;;;;;;;;6217032;23;20455;-68
2023/09/06 05:42:33;;;;;;;5.40;5.00;;;;;;;;;;6216855;23;20409;-68
2023/09/06 05:45:00;;;;;;;6.67;5.90;;;;;;;;;;6217085;23;20495;-67
2023/09/06 05:47:27;;;;;;;10.90;8.30;;;;;;;;;;6216934;23;20412;-67
2023/09/06 05:49:55;;;;;;;6.80;6.30;;;;;;;;;;6217166;23;20518;-67
2023/09/06 05:52:23;;;;;;;6.97;6.10;;;;;;;;;;6216539;23;20459;-68
2023/09/06 05:54:50;;;;;;;9.53;8.30;;;;;;;;;;6226771;23;20511;-68
2023/09/06 05:57:18;;;;;;;8.40;7.60;;;;;;;;;;6216898;23;20433;-68
2023/09/06 05:59:45;;;;;;;8.43;5.80;;;;;;;;;;6216801;23;20433;-68
2023/09/06 06:02:14;;;;;;;6.73;6.10;;;;;;;;;;6216817;23;20405;-67
2023/09/06 06:04:41;;;;;;;5.80;5.40;;;;;;;;;;6216703;23;20437;-67
2023/09/06 06:07:08;;;;;;;7.33;6.00;;;;;;;;;;6216641;23;20497;-67
2023/09/06 06:09:35;;;;;;;6.90;6.40;;;;;;;;;;6216817;23;20489;-67
2023/09/06 06:12:03;;;;;;;6.80;6.07;;;;;;;;;;6216780;23;20405;-67
2023/09/06 06:14:31;;;;;;;6.27;5.70;;;;;;;;;;6216637;23;20749;-67
2023/09/06 06:16:58;;;;;;;8.07;6.00;;;;;;;;;;6216767;23;20441;-67
2023/09/06 06:19:25;;;;;;;7.10;6.30;;;;;;;;;;6216336;23;20491;-67
2023/09/06 06:21:52;;;;;;;6.83;6.30;;;;;;;;;;6216167;23;20958;-67
2023/09/06 06:24:19;;;;;;;10.90;6.63;;;;;;;;;;6216742;23;20484;-67
2023/09/06 06:26:47;;;;;;;6.50;6.00;;;;;;;;;;6217034;23;20487;-68
2023/09/06 06:29:15;;;;;;;7.30;6.03;;;;;;;;;;6216590;23;20412;-68
2023/09/06 06:31:44;;;;;;;5.87;5.37;;;;;;;;;;6216156;23;20888;-67
2023/09/06 06:34:13;;;;;;;9.60;6.70;;;;;;;;;;6216043;23;20433;-68
2023/09/06 06:36:40;;;;;;;6.80;6.10;;;;;;;;;;6216470;23;20406;-67
2023/09/06 06:39:10;;;;;;;7.07;6.47;;;;;;;;;;6216635;23;20443;-67
2023/09/06 06:41:37;;;;;;;6.33;5.60;;;;;;;;;;6216196;23;20703;-67
2023/09/06 06:44:04;;;;;;;6.00;5.60;;;;;;;;;;6216557;23;20467;-67
2023/09/06 06:46:32;;;;;;;5.93;5.30;;;;;;;;;;6216551;23;20489;-67
2023/09/06 06:49:04;;;;;;;6.33;5.83;;;;;;;;;;6216372;23;20779;-67
2023/09/06 06:51:35;;;;;;;5.60;5.20;;;;;;;;;;6225672;23;20476;-64
2023/09/06 06:54:02;;;;;;;6.80;6.17;;;;;;;;;;6216310;23;20437;-75
2023/09/06 06:56:29;;;;;;;5.93;5.43;;;;;;;;;;6216190;23;20491;-70
2023/09/06 06:58:56;;;;;;;6.83;6.10;;;;;;;;;;6216313;23;20492;-66
2023/09/06 07:01:24;;;;;;;7.33;5.83;;;;;;;;;;6216252;23;20404;-69
2023/09/06 07:03:51;;;;;;;6.30;5.80;;;;;;;;;;6215531;23;20459;-69
2023/09/06 07:06:19;;;;;;;6.50;5.27;;;;;;;;;;6216201;23;20497;-71
2023/09/06 07:08:46;;;;;;;6.63;5.90;;;;;;;;;;6215643;23;20437;-73
2023/09/06 07:11:14;;;;;;;5.83;5.37;;;;;;;;;;6215763;23;20914;-69
2023/09/06 07:13:41;;;;;;;6.90;6.03;;;;;;;;;;6215754;23;20470;-68
2023/09/06 07:16:09;;;;;;;5.87;5.23;;;;;;;;;;6215858;23;20404;-71
2023/09/06 07:18:36;;;;;;;6.30;5.67;;;;;;;;;;6215609;23;20484;-72
2023/09/06 07:21:03;;;;;;;5.60;5.10;;;;;;;;;;6216080;23;20484;-79
2023/09/06 07:23:31;;;;;;;5.70;5.30;;;;;;;;;;6215888;23;20409;-65
2023/09/06 07:25:58;;;;;;;7.07;5.37;;;;;;;;;;6216005;23;20488;-74
2023/09/06 07:28:25;;;;;;;5.70;5.20;;;;;;;;;;6216160;23;20401;-74
2023/09/06 07:30:52;;;;;;;5.93;5.43;;;;;;;;;;6216099;23;20401;-73
2023/09/06 07:33:19;;;;;;;5.20;4.90;;;;;;;;;;6216012;23;20432;-74
2023/09/06 07:35:46;;;;;;;7.30;5.50;;;;;;;;;;6215886;23;20441;-71
2023/09/06 07:38:13;;;;;;;6.10;5.70;;;;;;;;;;6215877;23;20787;-66
2023/09/06 07:40:41;;;;;;;5.00;4.60;;;;;;;;;;6215945;23;20952;-69
2023/09/06 07:43:08;;;;;;;7.70;5.30;;;;;;;;;;6215524;23;20492;-65
2023/09/06 07:45:36;;;;;;;5.50;5.10;;;;;;;;;;6215900;23;20409;-67
2023/09/06 07:48:04;;;;;;;5.13;4.73;;;;;;;;;;6215746;23;20484;-63
2023/09/06 07:50:31;;;;;;;8.43;4.73;;;;;;;;;;6215691;23;20413;-63
2023/09/06 07:52:58;;;;;;;6.07;5.40;;;;;;;;;;6215401;23;20521;-71
2023/09/06 07:55:25;;;;;;;5.77;5.37;;;;;;;;;;6215343;23;21039;-73
2023/09/06 07:57:53;;;;;;;5.93;5.43;;;;;;;;;;6215524;23;20500;-80
2023/09/06 08:00:21;;;;;;;5.73;5.30;;;;;;;;;;6215550;23;20406;-66
2023/09/06 08:02:48;;;;;;;5.53;5.10;;;;;;;;;;6215758;23;20412;-67
2023/09/06 08:05:16;;;;;;;6.40;4.90;;;;;;;;;;6215746;23;20484;-66
2023/09/06 08:07:43;;;;;;;5.27;4.87;;;;;;;;;;6215370;23;20962;-66
2023/09/06 08:10:12;;;;;;;7.70;5.37;;;;;;;;;;6214690;23;20492;-65
2023/09/06 08:12:39;;;;;;;6.10;5.70;;;;;;;;;;6215387;23;20444;-72
2023/09/06 08:15:08;;;;;;;5.93;5.23;;;;;;;;;;6215579;23;20436;-63
2023/09/06 08:17:35;;;;;;;6.40;5.70;;;;;;;;;;6216891;23;20778;-79
2023/09/06 08:20:04;;;;;;;5.13;4.73;;;;;;;;;;6213394;23;20773;-69
2023/09/06 08:22:32;;;;;;;5.37;4.87;;;;;;;;;;6214563;23;20405;-71
2023/09/06 08:24:59;;;;;;;5.73;5.23;;;;;;;;;;6214770;23;20447;-67
2023/09/06 08:27:25;;;;;;;5.23;4.83;;;;;;;;;;6215606;23;20491;-64
2023/09/06 08:29:52;;;;;;;5.20;4.73;;;;;;;;;;6215100;23;20796;-63
2023/09/06 08:32:21;;;;;;;5.23;4.63;;;;;;;;;;6214791;23;20491;-63
2023/09/06 08:34:48;;;;;;;5.37;4.87;;;;;;;;;;6214797;23;21352;-68
2023/09/06 08:37:15;;;;;;;7.27;5.23;;;;;;;;;;6214551;23;20409;-69
2023/09/06 08:39:42;;;;;;;5.30;4.90;;;;;;;;;;6214549;23;20492;-69
2023/09/06 08:42:09;;;;;;;6.00;4.87;;;;;;;;;;6214673;23;20488;-69
2023/09/06 08:44:37;;;;;;;5.00;4.60;;;;;;;;;;6214639;23;20789;-62
2023/09/06 08:47:05;;;;;;;8.10;5.47;;;;;;;;;;6214265;23;20440;-62
2023/09/06 08:49:35;;;;;;;5.23;4.73;;;;;;;;;;6214468;23;20409;-74
2023/09/06 08:52:02;;;;;;;5.57;5.07;;;;;;;;;;6214394;23;20496;-65
2023/09/06 08:54:29;;;;;;;5.23;4.83;;;;;;;;;;6224219;23;20440;-72
2023/09/06 08:56:56;;;;;;;5.20;4.80;;;;;;;;;;6214703;23;20496;-65
2023/09/06 08:59:24;;;;;;;6.00;5.57;;;;;;;;;;6215125;23;20922;-68
2023/09/06 09:01:50;;;;;;;6.07;5.57;;;;;;;;;;6214338;23;20487;-65
2023/09/06 09:04:17;;;;;;;4.67;4.27;;;;;;;;;;6214612;23;20491;-65
2023/09/06 09:06:46;;;;;;;4.70;4.40;;;;;;;;;;6214269;23;20721;-65
2023/09/06 09:09:17;;;;;;;4.47;4.17;;;;;;;;;;6214740;23;20487;-61
2023/09/06 09:11:45;;;;;;;5.03;4.40;;;;;;;;;;6214111;23;20484;-66
2023/09/06 09:14:19;;;;;;;5.20;4.70;;;;;;;;;;6214214;23;20405;-67
2023/09/06 09:16:53;;;;;;;5.03;4.60;;;;;;;;;;6224702;23;20407;-64
2023/09/06 09:19:21;;;;;;;8.80;4.40;;;;;;;;;;6224191;23;20480;-67
2023/09/06 09:21:50;;;;;;;11.93;4.93;;;;;;;;;;6215923;23;20497;-68
2023/09/06 09:24:24;;;;;;;5.17;4.37;;;;;;;;;;6216544;23;20439;-66
2023/09/06 09:26:51;;;;;;;4.90;4.60;;;;;;;;;;6226835;23;20456;-65
2023/09/06 09:29:18;;;;;;;5.20;4.80;;;;;;;;;;6217045;23;20488;-68
2023/09/06 09:31:46;;;;;;;4.90;4.50;;;;;;;;;;6217047;23;20496;-76
2023/09/06 09:34:13;;;;;;;4.80;4.50;;;;;;;;;;6216919;23;20409;-70
2023/09/06 09:36:40;;;;;;;5.60;5.20;;;;;;;;;;6217140;23;20436;-67
2023/09/06 09:39:13;;;;;;;4.67;4.37;;;;;;;;;;6217154;23;20491;-64
2023/09/06 09:41:42;;;;;;;5.40;4.90;;;;;;;;;;6226704;23;20397;-64
2023/09/06 09:44:13;;;;;;;5.63;4.70;;;;;;;;;;6216934;23;20411;-64
2023/09/06 09:46:40;;;;;;;5.73;5.17;;;;;;;;;;6216940;23;20707;-67
2023/09/06 09:49:10;;;;;;;5.20;4.77;;;;;;;;;;6216775;23;20493;-67
2023/09/06 09:51:37;;;;;;;4.83;4.53;;;;;;;;;;6216295;23;20729;-68
2023/09/06 09:54:05;;;;;;;4.83;4.53;;;;;;;;;;6215954;23;20456;-68
2023/09/06 09:56:34;;;;;;;6.20;4.60;;;;;;;;;;6216688;23;20520;-73
2023/09/06 09:59:02;;;;;;;5.53;4.93;;;;;;;;;;6216776;23;20803;-75
2023/09/06 10:01:30;;;;;;;4.57;4.23;;;;;;;;;;6216800;23;20484;-69
2023/09/06 10:03:58;;;;;;;4.40;4.00;;;;;;;;;;6216606;23;20488;-69
2023/09/06 10:06:26;;;;;;;5.67;5.00;;;;;;;;;;6216776;23;20416;-67
2023/09/06 10:08:55;;;;;;;5.07;4.67;;;;;;;;;;6216299;23;20979;-68
2023/09/06 10:11:22;;;;;;;4.90;4.50;;;;;;;;;;6216294;23;20420;-64
2023/09/06 10:13:51;;;;;;;4.70;4.40;;;;;;;;;;6216661;23;20492;-71
2023/09/06 10:16:20;;;;;;;5.23;4.70;;;;;;;;;;6216517;23;20472;-71
2023/09/06 10:18:47;;;;;;;4.43;4.13;;;;;;;;;;6216294;23;20483;-69
2023/09/06 10:21:15;;;;;;;5.03;4.20;;;26.20;99.90;;;;;;6216459;23;20484;-76
2023/09/06 10:23:42;;;;;;;5.40;4.67;;;26.30;99.90;;;;;;6216231;23;20437;-67
2023/09/06 10:26:09;;;;;;;4.87;4.47;;;26.30;99.90;;;;;;6216495;23;20439;-63
2023/09/06 10:28:36;;;;;;;4.67;4.37;;;26.40;99.90;;;;;;6216419;23;20423;-65
2023/09/06 10:31:09;;;;;;;8.03;4.87;;;26.40;99.90;;;;;;6216490;23;20480;-66
2023/09/06 10:33:56;;;;;;;5.80;5.40;;;26.40;99.90;;;;;;6216354;23;20750;-66
2023/09/06 10:36:27;;;;;;;5.60;5.20;;;26.40;99.90;;;;;;6216097;23;20440;-64
2023/09/06 10:39:15;;;;;;;5.00;4.70;;;26.50;99.90;;;;;;6215850;23;20869;-64
2023/09/06 10:42:29;;;;;;;5.60;5.20;;;26.60;99.90;;;;;;6216120;23;20424;-65
2023/09/06 10:45:08;;;;;;;4.77;4.47;;;26.70;99.90;;;;;;6216156;23;20416;-68
2023/09/06 10:47:36;;;;;;;4.73;4.33;;;26.70;99.90;;;;;;6216043;23;20437;-65
2023/09/06 10:50:15;;;;;;;5.83;5.00;;;26.80;99.90;;;;;;6216103;23;20444;-64
2023/09/06 10:52:44;;;;;;;5.10;4.50;;;26.90;99.90;;;;;;6215699;23;20441;-67
2023/09/06 10:55:13;;;;;;;6.60;4.97;;;27.00;99.90;;;;;;6215974;23;20433;-66
2023/09/06 10:57:51;;;;;;;4.33;4.03;;;26.90;99.90;;;;;;6215926;23;20799;-68
2023/09/06 11:00:19;;;;;;;4.83;4.50;;;26.90;99.90;;;;;;6215787;23;20412;-67
2023/09/06 11:03:17;;;;;;;4.80;4.23;;;26.90;99.90;;;;;;6216177;23;20492;-67
2023/09/06 11:05:48;;;;;;;4.13;3.90;;;27.00;99.90;;;;;;6215967;23;20389;-69
2023/09/06 11:08:24;;;;;;;6.63;4.50;;;27.10;99.90;;;;;;6215833;23;20390;-63
2023/09/06 11:10:52;;;;;;;6.07;4.60;;;27.20;99.90;;;;;;6215945;23;20425;-69
2023/09/06 11:13:19;;;;;;;4.77;4.37;;;27.30;99.90;;;;;;6215306;23;20401;-70
2023/09/06 11:15:49;;;;;;;5.00;4.60;;;27.40;99.90;;;;;;6215804;23;20437;-64
2023/09/06 11:18:17;;;;;;;4.87;4.13;;;27.40;99.90;;;;;;6215963;23;20726;-63
2023/09/06 11:20:49;;;;;;;4.63;4.20;;;27.40;99.90;;;;;;6215713;23;20397;-72
2023/09/06 11:23:17;;;;;;;4.80;4.50;;;27.50;99.90;;;;;;6215622;23;20398;-72
2023/09/06 11:25:44;;;;;;;4.40;4.00;;;27.60;99.90;;;;;;6215676;23;20409;-80
2023/09/06 11:28:19;;;;;;;4.17;3.97;;;27.70;99.90;;;;;;6215470;23;20766;-71
2023/09/06 11:30:47;;;;;;;5.17;4.73;;;27.70;99.90;;;;;;6215594;23;20488;-73
2023/09/06 11:33:16;;;;;;;7.10;4.57;;;27.60;99.90;;;;;;6214875;23;20896;-71
2023/09/06 11:35:51;;;;;;;4.93;4.53;;;27.60;99.90;;;;;;6215045;23;20487;-69
2023/09/06 11:38:20;;;;;;;4.27;3.97;;;27.80;99.90;;;;;;6215689;23;20935;-70
2023/09/06 11:40:47;;;;;;;4.77;4.43;;;27.90;99.90;;;;;;6215676;23;20777;-73
2023/09/06 11:43:17;;;;;;;4.17;3.97;;;27.90;99.90;;;;;;6215286;23;20913;-68
2023/09/06 11:45:46;;;;;;;4.20;4.00;;;27.90;99.90;;;;;;6215784;23;20959;-72
2023/09/06 11:48:19;;;;;;;4.17;3.83;;;28.00;99.90;;;;;;6215737;23;20687;-69
2023/09/06 11:50:51;;;;;;;5.30;3.73;;;28.10;99.90;;;;;;6215717;23;20389;-79
2023/09/06 11:53:18;;;;;;;5.77;4.33;;;28.10;99.90;;;;;;6214725;23;20425;-71
2023/09/06 11:55:47;;;;;;;5.63;3.73;;;28.00;99.90;;;;;;6215694;23;20441;-75
2023/09/06 11:58:18;;;;;;;4.00;3.70;;;27.80;99.90;;;;;;6215495;23;20717;-79
2023/09/06 12:00:47;;;;;;;3.90;3.47;;;27.90;99.90;;;;;;6215622;23;20405;-68
2023/09/06 12:03:16;;;;;;;4.03;3.73;;;28.00;99.90;;;;;;6215126;23;20427;-67
2023/09/06 12:05:44;;;;;;;3.87;3.60;;;28.20;99.90;;;;;;6215602;23;20410;-75
2023/09/06 12:08:17;;;;;;;4.47;4.20;;;28.20;99.90;;;;;;6215235;23;20484;-72
2023/09/06 12:10:49;;;;;;;4.40;3.90;;;28.20;99.90;;;;;;6215719;23;20393;-66
2023/09/06 12:13:16;;;;;;;4.23;3.93;;;28.10;99.90;;;;;;6214929;23;20888;-68
2023/09/06 12:15:43;;;;;;;3.87;3.47;;;28.20;99.90;;;;;;6215336;23;20441;-67
2023/09/06 12:18:09;;;;;;;4.40;4.10;;;28.40;99.90;;;;;;6215453;23;20405;-68
2023/09/06 12:20:36;;;;;;;4.47;4.07;;;28.40;99.90;;;;;;6213492;23;20833;-75
2023/09/06 12:23:05;;;;;;;3.40;3.20;;;28.40;99.70;;;;;;6215594;23;20489;-62
2023/09/06 12:25:34;;;;;;;4.10;3.70;;;28.40;98.40;;;;;;6215019;23;20413;-72
2023/09/06 12:28:01;;;;;;;4.40;4.00;;;28.30;98.40;;;;;;6214860;23;20905;-69
2023/09/06 12:30:28;;;;;;;4.50;3.93;;;28.50;99.00;;;;;;6215179;23;20412;-70
2023/09/06 12:32:54;;;;;;;3.70;3.40;;;28.50;98.10;;;;;;6215366;23;20488;-74
2023/09/06 12:35:20;;;;;;;4.37;4.07;;;28.70;98.20;;;;;;6215420;23;20864;-67
2023/09/06 12:37:47;;;;;;;6.47;3.27;;;28.80;96.70;;;;;;6215384;23;20433;-73
2023/09/06 12:40:14;;;;;;;3.73;3.43;;;28.90;97.10;;;;;;6215453;23;20488;-67
2023/09/06 12:42:43;;;;;;;3.97;3.23;;;29.00;96.30;;;;;;6215650;23;20405;-72
2023/09/06 12:45:20;;;;;;;3.50;3.30;;;29.20;96.00;;;;;;6215428;23;20439;-74
2023/09/06 12:47:46;;;;;;;5.47;3.23;;;29.30;95.60;;;;;;6215510;23;20425;-74
2023/09/06 12:50:13;;;;;;;4.10;3.80;;;29.50;94.20;;;;;;6215505;23;20488;-61
2023/09/06 12:52:39;;;;;;;4.17;3.87;;;29.60;94.40;;;;;;6215128;23;20476;-66
2023/09/06 12:55:07;;;;;;;4.50;4.10;;;29.60;94.70;;;;;;6215429;23;20713;-72
2023/09/06 12:57:34;;;;;;;4.83;4.33;;;29.60;94.80;;;;;;6214970;23;20960;-75
2023/09/06 13:00:05;;;;;;;4.90;4.07;;;29.50;95.50;;;;;;6215329;23;20666;-71
2023/09/06 13:02:32;;;;;;;3.83;3.53;;;29.50;95.10;;;;;;6215785;23;20390;-68
2023/09/06 13:04:59;;;;;;;4.30;3.90;;;29.50;94.50;;;;;;6217265;23;20484;-67
2023/09/06 13:07:26;;;;;;;5.47;4.60;;;29.60;94.70;;;;;;6216490;23;20888;-66
2023/09/06 13:09:52;;;;;;;4.33;3.93;;;29.50;94.60;;;;;;6217122;23;20491;-65
2023/09/06 13:12:18;;;;;;;5.10;3.60;;;29.40;94.90;;;;;;6216725;23;20412;-65
2023/09/06 13:14:45;;;;;;;4.57;4.00;;;29.40;95.20;;;;;;6216450;23;20480;-65
2023/09/06 13:17:13;;;;;;;4.73;4.33;;;29.50;95.40;;;;;;6216985;23;20523;-65
2023/09/06 13:19:41;;;;;;;4.30;4.00;;;29.70;95.60;;;;;;6217093;23;20828;-65
2023/09/06 13:22:08;;;;;;;4.03;3.73;;;29.80;95.30;;;;;;6217035;23;20947;-64
2023/09/06 13:24:34;;;;;;;4.00;3.70;;;29.90;95.20;;;;;;6217000;23;20776;-65
2023/09/06 13:27:03;;;;;;;4.03;3.67;;;29.90;94.90;;;;;;6216907;23;20432;-65
2023/09/06 13:29:29;;;;;;;4.80;3.73;;;29.90;95.20;;;;;;6217043;23;20405;-65
2023/09/06 13:31:56;;;;;;;5.23;4.40;;;30.00;94.60;;;;;;6216857;23;20432;-65
2023/09/06 13:34:24;;;;;;;4.40;4.00;;;29.90;94.70;;;;;;6217022;23;20484;-65
2023/09/06 13:36:50;;;;;;;3.77;3.47;;;29.60;95.00;;;;;;6216817;23;20799;-64
2023/09/06 13:39:17;;;;;;;4.70;4.07;;;29.40;94.90;;;;;;6216776;23;20437;-65
2023/09/06 13:41:43;;;;;;;5.80;3.67;;;29.40;94.80;;;;;;6216680;23;20725;-65
2023/09/06 13:44:10;;;;;;;4.77;3.90;;;29.60;95.30;;;;;;6216939;23;20480;-65
2023/09/06 13:46:36;;;;;;;4.13;3.83;;;29.80;94.40;;;;;;6216859;23;20496;-65
2023/09/06 13:49:07;;;;;;;4.53;4.23;;;29.80;93.80;;;;;;6216834;23;20479;-65
2023/09/06 13:51:35;;;;;;;4.33;4.03;;;29.90;93.50;;;;;;6216728;23;20468;-65
2023/09/06 13:54:01;;;;;;;3.90;3.70;;;30.00;93.40;;;;;;6216159;23;20512;-65
2023/09/06 13:56:30;;;;;;;4.17;3.87;;;30.10;92.80;;;;;;6216681;23;20531;-65
2023/09/06 13:58:56;;;;;;;4.00;3.70;;;30.00;92.40;;;;;;6216718;23;20793;-65
2023/09/06 14:01:23;;;;;;;4.27;3.97;;;29.90;91.20;;;;;;6216521;23;20496;-65
2023/09/06 14:03:50;;;;;;;3.90;3.60;;;29.60;91.00;;;;;;6216720;23;20389;-65
2023/09/06 14:06:17;;;;;;;3.80;3.60;;;29.60;91.60;;;;;;6216631;23;20441;-65
2023/09/06 14:08:45;;;;;;;5.50;3.50;;;29.80;91.70;;;;;;6216661;23;20406;-65
2023/09/06 14:11:11;;;;;;;3.77;3.47;;;29.90;91.10;;;;;;6216627;23;20750;-65
2023/09/06 14:13:39;;;;;;;5.37;3.70;;;30.00;90.80;;;;;;6216445;23;20412;-65
2023/09/06 14:16:06;;;;;;;4.20;3.40;;;29.80;89.80;;;;;;6216511;23;20738;-65